Portada
METAR-TAF:

METAR-TAF

Aeroports :

Miri, Malàisia

latitud: 04-20N, longitud: 113-59E, altitud: 17 m

Observació

L'informe es va fer fa 39 minuts, a les 21:00 UTC
Vent 2 kt amb direcció variable
Temperatura 25°C
Humitat 94%
Pressió 1008 hPa
Visibilitat 10 km o més
Núvols disperses a una alçada de 1400 ft
Cel ennuvolat a una alçada de 15000 ft

METAR: WBGR 112100Z VRB02KT 9999 SCT014 BKN150 25/24 Q1008

Hora: 05:39 (21:39 UTC)

Pronòstic

L'informe es va fer fa 4 hores i 39 minuts, a les 17:00 UTC
Pronòstic vàlid del 11 a les 18 UTC al 12 a les 18 UTC
Vent 3 kt amb direcció variable
Visibilitat 10 km o més
Núvols disperses a una alçada de 1600 ft
Temporalment
l' 12 a les 06 UTC al 12 a les 10 UTC
Visibilitat: 5000 m
Núvols disperses a una alçada de 1400 ft
pluja

TAF: WBGR 111700Z 1118/1218 VRB03KT 9999 SCT016 TEMPO 1206/1210 5000 RA SCT014

Observacions i pronòstics meteorològics de més de 4000 aeroports (METAR i TAF).

Les estacions disponibles són els punts grocs i vermells al mapa.

Posi el ratolí al punt desitjat per veure el nom de l'estació.

Feu clic per veure les observacions i els pronòstics meteorològics.

Per canviar el mapa: feu clic els botons verds amb una creu de color negre per apropar; al botó verd amb un guió per allunyar la imatge; o en les fletxes verdes per a mapes adjacents.


METAR-TAF: